createdAt,value
2022-09-28T00:00:00.671Z,3
2022-09-28T00:01:00.681Z,4
2022-09-28T00:02:00.822Z,3
2022-09-28T00:03:00.739Z,4
2022-09-28T00:04:00.679Z,3
2022-09-28T00:05:00.681Z,3
2022-09-28T00:06:00.693Z,2
2022-09-28T00:07:00.673Z,2
2022-09-28T00:08:00.667Z,3
2022-09-28T00:09:00.666Z,4
2022-09-28T00:10:00.680Z,2
2022-09-28T00:12:00.701Z,3
2022-09-28T00:13:00.681Z,3
2022-09-28T00:14:00.675Z,3
2022-09-28T00:15:00.673Z,4
2022-09-28T00:16:00.772Z,6
2022-09-28T00:17:00.674Z,3
2022-09-28T00:18:00.678Z,4
2022-09-28T00:19:00.671Z,3
2022-09-28T00:20:00.680Z,3
2022-09-28T00:21:00.684Z,2
2022-09-28T00:22:00.679Z,4
2022-09-28T00:23:00.678Z,4
2022-09-28T00:24:00.680Z,3
2022-09-28T00:25:00.684Z,3
2022-09-28T00:26:00.689Z,3
2022-09-28T00:27:00.665Z,3
2022-09-28T00:28:00.698Z,4
2022-09-28T00:29:00.670Z,4
2022-09-28T00:30:00.677Z,4
2022-09-28T00:31:00.673Z,4
2022-09-28T00:32:00.873Z,4
2022-09-28T00:33:00.682Z,2
2022-09-28T00:34:00.672Z,2
2022-09-28T00:35:00.670Z,5
2022-09-28T00:36:00.682Z,4
2022-09-28T00:37:00.707Z,3
2022-09-28T00:38:00.679Z,2
2022-09-28T00:39:00.668Z,3
2022-09-28T00:40:00.672Z,3
2022-09-28T00:41:00.787Z,5
2022-09-28T00:42:00.691Z,4
2022-09-28T00:43:00.697Z,3
2022-09-28T00:44:00.675Z,4
2022-09-28T00:45:00.670Z,3
2022-09-28T00:46:00.767Z,3
2022-09-28T00:47:00.681Z,4
2022-09-28T00:48:00.685Z,4
2022-09-28T00:49:00.686Z,5
2022-09-28T00:50:00.671Z,4
2022-09-28T00:51:00.686Z,4
2022-09-28T00:52:00.678Z,5
2022-09-28T00:53:00.672Z,3
2022-09-28T00:54:00.677Z,3
2022-09-28T00:56:00.708Z,3
2022-09-28T00:57:00.682Z,5
2022-09-28T00:58:00.700Z,5
2022-09-28T00:59:00.670Z,2
2022-09-28T01:00:00.673Z,5
2022-09-28T01:01:00.776Z,3
2022-09-28T01:02:00.750Z,4
2022-09-28T01:03:00.663Z,3
2022-09-28T01:04:00.687Z,2
2022-09-28T01:05:00.668Z,3
2022-09-28T01:06:00.679Z,4
2022-09-28T01:07:00.665Z,3
2022-09-28T01:08:00.715Z,4
2022-09-28T01:09:00.678Z,3
2022-09-28T01:10:00.670Z,2
2022-09-28T01:11:00.686Z,3
2022-09-28T01:12:00.682Z,3
2022-09-28T01:13:00.691Z,3
2022-09-28T01:14:00.671Z,3
2022-09-28T01:15:00.673Z,2
2022-09-28T01:16:00.771Z,3
2022-09-28T01:17:00.678Z,2
2022-09-28T01:18:00.679Z,3
2022-09-28T01:19:00.681Z,2
2022-09-28T01:20:00.697Z,2
2022-09-28T01:21:00.689Z,2
2022-09-28T01:22:00.672Z,1
2022-09-28T01:23:00.683Z,2
2022-09-28T01:24:00.696Z,2
2022-09-28T01:25:00.683Z,3
2022-09-28T01:26:00.703Z,2
2022-09-28T01:27:00.691Z,2
2022-09-28T01:29:00.746Z,2
2022-09-28T01:30:00.669Z,2
2022-09-28T01:31:00.671Z,2
2022-09-28T01:33:00.677Z,2
2022-09-28T01:34:00.674Z,2
2022-09-28T01:35:00.677Z,2
2022-09-28T01:36:00.691Z,1
2022-09-28T01:37:00.688Z,2
2022-09-28T01:38:00.679Z,2
2022-09-28T01:39:00.706Z,3
2022-09-28T01:40:00.686Z,2
2022-09-28T01:41:00.696Z,3
2022-09-28T01:42:00.674Z,2
2022-09-28T01:43:00.691Z,2
2022-09-28T01:44:00.667Z,1
2022-09-28T01:45:00.686Z,2
2022-09-28T01:46:00.744Z,3
2022-09-28T01:47:00.685Z,2
2022-09-28T01:48:00.689Z,2
2022-09-28T01:49:00.674Z,2
2022-09-28T01:50:00.673Z,3
2022-09-28T01:51:00.690Z,3
2022-09-28T01:52:00.682Z,2
2022-09-28T01:53:00.689Z,5
2022-09-28T01:54:00.671Z,2
2022-09-28T01:55:00.674Z,1
2022-09-28T01:56:00.694Z,2
2022-09-28T01:57:00.678Z,2
2022-09-28T01:58:00.679Z,2
2022-09-28T01:59:00.676Z,3
2022-09-28T02:00:00.674Z,2
2022-09-28T02:01:00.792Z,2
2022-09-28T02:02:00.737Z,3
2022-09-28T02:03:00.677Z,1
2022-09-28T02:04:00.682Z,3
2022-09-28T02:05:00.674Z,3
2022-09-28T02:06:00.707Z,3
2022-09-28T02:07:00.723Z,1
2022-09-28T02:08:00.668Z,1
2022-09-28T02:09:00.671Z,1
2022-09-28T02:10:00.697Z,2
2022-09-28T02:11:00.689Z,3
2022-09-28T02:12:00.677Z,2
2022-09-28T02:13:00.682Z,1
2022-09-28T02:14:00.675Z,2
2022-09-28T02:15:00.687Z,4
2022-09-28T02:16:00.744Z,3
2022-09-28T02:17:00.680Z,3
2022-09-28T02:18:00.687Z,2
2022-09-28T02:19:00.676Z,3
2022-09-28T02:20:00.684Z,2
2022-09-28T02:21:00.670Z,2
2022-09-28T02:22:00.691Z,3
2022-09-28T02:23:00.675Z,2
2022-09-28T02:24:00.686Z,2
2022-09-28T02:25:00.687Z,2
2022-09-28T02:26:00.704Z,3
2022-09-28T02:27:00.695Z,3
2022-09-28T02:28:00.674Z,2
2022-09-28T02:29:00.674Z,3
2022-09-28T02:30:00.681Z,2
2022-09-28T02:31:00.671Z,2
2022-09-28T02:32:00.681Z,4
2022-09-28T02:33:00.685Z,2
2022-09-28T02:34:00.699Z,3
2022-09-28T02:35:00.673Z,3
2022-09-28T02:36:00.672Z,3
2022-09-28T02:37:00.678Z,4
2022-09-28T02:38:00.679Z,4
2022-09-28T02:39:00.683Z,4
2022-09-28T02:40:00.678Z,2
2022-09-28T02:41:00.752Z,6
2022-09-28T02:42:00.675Z,3
2022-09-28T02:43:00.679Z,5
2022-09-28T02:44:00.677Z,2
2022-09-28T02:45:00.705Z,2
2022-09-28T02:47:00.677Z,2
2022-09-28T02:48:00.673Z,3
2022-09-28T02:49:20.220Z,2
2022-09-28T02:50:00.755Z,3
2022-09-28T02:51:00.685Z,3
2022-09-28T02:52:00.695Z,3
2022-09-28T02:53:00.686Z,4
2022-09-28T02:54:00.675Z,4
2022-09-28T02:55:00.680Z,3
2022-09-28T02:56:00.694Z,5
2022-09-28T02:57:00.678Z,3
2022-09-28T02:58:00.679Z,2
2022-09-28T02:59:00.683Z,3
2022-09-28T03:00:00.682Z,2
2022-09-28T03:01:00.788Z,2
2022-09-28T03:02:00.746Z,5
2022-09-28T03:03:00.680Z,3
2022-09-28T03:04:00.681Z,4
2022-09-28T03:05:00.671Z,2
2022-09-28T03:06:00.707Z,2
2022-09-28T03:07:00.668Z,4
2022-09-28T03:08:00.695Z,5
2022-09-28T03:09:00.681Z,4
2022-09-28T03:10:00.685Z,6
2022-09-28T03:11:00.693Z,5
2022-09-28T03:12:00.711Z,6
2022-09-28T03:13:00.683Z,4
2022-09-28T03:14:00.697Z,5
2022-09-28T03:15:00.681Z,5
2022-09-28T03:16:00.776Z,6
2022-09-28T03:17:00.682Z,4
2022-09-28T03:18:00.682Z,6
2022-09-28T03:19:00.681Z,5
2022-09-28T03:20:00.688Z,5
2022-09-28T03:21:00.680Z,4
2022-09-28T03:22:00.682Z,4
2022-09-28T03:23:23.384Z,4
2022-09-28T03:24:00.685Z,6
2022-09-28T03:25:00.673Z,5
2022-09-28T03:26:00.689Z,4
2022-09-28T03:27:00.679Z,5
2022-09-28T03:28:00.692Z,5
2022-09-28T03:29:00.686Z,4
2022-09-28T03:30:00.673Z,6
2022-09-28T03:31:00.724Z,6
2022-09-28T03:32:00.706Z,6
2022-09-28T03:33:00.681Z,5
2022-09-28T03:34:00.684Z,6
2022-09-28T03:35:00.718Z,4
2022-09-28T03:36:00.684Z,6
2022-09-28T03:37:00.679Z,5
2022-09-28T03:38:00.674Z,5
2022-09-28T03:39:00.689Z,5
2022-09-28T03:40:00.674Z,4
2022-09-28T03:41:00.801Z,5
2022-09-28T03:42:00.678Z,5
2022-09-28T03:43:00.716Z,3
2022-09-28T03:44:00.698Z,4
2022-09-28T03:45:00.678Z,5
2022-09-28T03:46:00.762Z,5
2022-09-28T03:47:00.682Z,4
2022-09-28T03:48:00.678Z,7
2022-09-28T03:49:00.689Z,5
2022-09-28T03:50:00.684Z,6
2022-09-28T03:51:00.732Z,6
2022-09-28T03:52:00.680Z,8
2022-09-28T03:53:00.699Z,4
2022-09-28T03:54:00.697Z,4
2022-09-28T03:55:00.678Z,5
2022-09-28T03:56:00.712Z,3
2022-09-28T03:57:00.699Z,5
2022-09-28T03:58:00.688Z,5
2022-09-28T03:59:00.685Z,5
2022-09-28T04:00:00.680Z,6
2022-09-28T04:01:00.783Z,5
2022-09-28T04:02:00.755Z,5
2022-09-28T04:03:00.680Z,4
2022-09-28T04:04:00.689Z,6
2022-09-28T04:05:00.692Z,6
2022-09-28T04:06:00.685Z,5
2022-09-28T04:07:00.681Z,4
2022-09-28T04:08:00.691Z,8
2022-09-28T04:09:00.674Z,5
2022-09-28T04:10:00.691Z,4
2022-09-28T04:11:00.689Z,6
2022-09-28T04:12:04.341Z,6
2022-09-28T04:13:00.677Z,6
2022-09-28T04:14:00.893Z,7
2022-09-28T04:15:00.686Z,5
2022-09-28T04:16:00.745Z,6
2022-09-28T04:17:00.696Z,6
2022-09-28T04:18:00.685Z,9
2022-09-28T04:19:00.691Z,6
2022-09-28T04:20:00.680Z,6
2022-09-28T04:21:00.702Z,6
2022-09-28T04:22:00.689Z,7
2022-09-28T04:23:00.685Z,6
2022-09-28T04:24:00.678Z,9
2022-09-28T04:25:00.700Z,7
2022-09-28T04:26:00.732Z,9
2022-09-28T04:27:00.686Z,7
2022-09-28T04:28:00.682Z,9
2022-09-28T04:29:06.209Z,8
2022-09-28T04:30:00.675Z,7
2022-09-28T04:31:00.707Z,7
2022-09-28T04:32:00.747Z,9
2022-09-28T04:33:00.678Z,10
2022-09-28T04:34:00.723Z,7
2022-09-28T04:35:00.680Z,11
2022-09-28T04:36:00.682Z,10
2022-09-28T04:37:00.696Z,9
2022-09-28T04:38:00.681Z,8
2022-09-28T04:39:00.684Z,10
2022-09-28T04:40:00.688Z,11
2022-09-28T04:41:00.742Z,10
2022-09-28T04:42:00.683Z,11
2022-09-28T04:43:00.688Z,8
2022-09-28T04:44:00.696Z,9
2022-09-28T04:45:00.716Z,9
2022-09-28T04:46:00.746Z,10
2022-09-28T04:47:04.976Z,10
2022-09-28T04:48:00.678Z,9
2022-09-28T04:49:00.692Z,8
2022-09-28T04:50:00.692Z,9
2022-09-28T04:51:00.697Z,10
2022-09-28T04:52:00.686Z,10
2022-09-28T04:53:00.686Z,10
2022-09-28T04:54:00.685Z,8
2022-09-28T04:55:00.697Z,9
2022-09-28T04:56:00.698Z,10
2022-09-28T04:57:00.695Z,8
2022-09-28T04:58:00.680Z,7
2022-09-28T04:59:00.712Z,9
2022-09-28T05:00:00.680Z,8
2022-09-28T05:01:00.833Z,7
2022-09-28T05:02:00.744Z,9
2022-09-28T05:03:00.688Z,9
2022-09-28T05:04:00.685Z,8
2022-09-28T05:05:00.679Z,12
2022-09-28T05:06:00.691Z,10
2022-09-28T05:07:00.685Z,7
2022-09-28T05:08:00.705Z,10
2022-09-28T05:09:00.680Z,10
2022-09-28T05:10:00.686Z,10
2022-09-28T05:11:00.677Z,11
2022-09-28T05:12:00.694Z,10
2022-09-28T05:13:00.683Z,10
2022-09-28T05:14:00.697Z,10
2022-09-28T05:15:00.697Z,11
2022-09-28T05:16:05.079Z,9
2022-09-28T05:17:00.744Z,9
2022-09-28T05:18:00.677Z,10
2022-09-28T05:19:00.678Z,12
2022-09-28T05:20:00.688Z,10
2022-09-28T05:21:00.698Z,10
2022-09-28T05:22:00.690Z,10
2022-09-28T05:23:00.688Z,8
2022-09-28T05:24:00.686Z,11
2022-09-28T05:25:00.672Z,9
2022-09-28T05:26:00.697Z,9
2022-09-28T05:27:00.683Z,9
2022-09-28T05:28:00.688Z,10
2022-09-28T05:29:00.687Z,9
2022-09-28T05:30:00.682Z,10
2022-09-28T05:31:00.697Z,8
2022-09-28T05:32:00.724Z,9
2022-09-28T05:33:00.689Z,9
2022-09-28T05:34:00.679Z,11
2022-09-28T05:35:00.682Z,11
2022-09-28T05:36:01.463Z,11
2022-09-28T05:37:00.677Z,13
2022-09-28T05:38:00.680Z,10
2022-09-28T05:39:00.686Z,10
2022-09-28T05:40:00.704Z,11
2022-09-28T05:41:05.754Z,10
2022-09-28T05:42:00.699Z,10
2022-09-28T05:43:00.681Z,12
2022-09-28T05:44:00.694Z,9
2022-09-28T05:45:00.695Z,10
2022-09-28T05:46:00.839Z,10
2022-09-28T05:47:00.707Z,11
2022-09-28T05:48:00.710Z,9
2022-09-28T05:49:00.687Z,10
2022-09-28T05:50:00.689Z,11
2022-09-28T05:51:00.698Z,9
2022-09-28T05:52:00.689Z,8
2022-09-28T05:53:00.689Z,12
2022-09-28T05:54:05.366Z,9
2022-09-28T05:55:00.688Z,10
2022-09-28T05:56:00.721Z,9
2022-09-28T05:57:00.688Z,10
2022-09-28T05:58:00.682Z,10
2022-09-28T05:59:00.680Z,10
2022-09-28T06:00:00.699Z,8
2022-09-28T06:01:00.771Z,9
2022-09-28T06:02:00.842Z,8
2022-09-28T06:03:03.350Z,8
2022-09-28T06:04:00.681Z,8
2022-09-28T06:05:00.687Z,10
2022-09-28T06:06:00.695Z,8
2022-09-28T06:07:00.693Z,8
2022-09-28T06:08:00.687Z,9
2022-09-28T06:09:00.691Z,9
2022-09-28T06:10:00.683Z,9
2022-09-28T06:11:00.711Z,7
2022-09-28T06:12:00.685Z,9
2022-09-28T06:13:00.685Z,8
2022-09-28T06:14:00.698Z,9
2022-09-28T06:15:00.699Z,8
2022-09-28T06:16:00.696Z,7
2022-09-28T06:17:00.723Z,7
2022-09-28T06:18:00.711Z,8
2022-09-28T06:19:00.692Z,8
2022-09-28T06:20:00.791Z,7
2022-09-28T06:21:00.699Z,9
2022-09-28T06:22:00.693Z,7
2022-09-28T06:23:00.688Z,8
2022-09-28T06:24:00.689Z,8
2022-09-28T06:25:00.689Z,7
2022-09-28T06:26:00.717Z,7
2022-09-28T06:27:00.700Z,9
2022-09-28T06:28:00.684Z,7
2022-09-28T06:29:00.708Z,7
2022-09-28T06:30:00.689Z,8
2022-09-28T06:31:00.767Z,9
2022-09-28T06:32:01.894Z,9
2022-09-28T06:33:00.690Z,9
2022-09-28T06:34:00.687Z,7
2022-09-28T06:35:00.717Z,7
2022-09-28T06:36:00.694Z,9
2022-09-28T06:37:00.712Z,7
2022-09-28T06:38:00.704Z,7
2022-09-28T06:39:00.685Z,8
2022-09-28T06:40:00.720Z,11
2022-09-28T06:41:00.814Z,8
2022-09-28T06:42:00.706Z,11
2022-09-28T06:43:00.716Z,7
2022-09-28T06:44:00.696Z,8
2022-09-28T06:45:00.718Z,11
2022-09-28T06:46:00.833Z,7
2022-09-28T06:47:00.706Z,7
2022-09-28T06:48:00.704Z,7
2022-09-28T06:49:00.740Z,6
2022-09-28T06:50:00.702Z,7
2022-09-28T06:52:00.697Z,7
2022-09-28T06:53:00.722Z,8
2022-09-28T06:54:00.714Z,10
2022-09-28T06:55:00.707Z,7
2022-09-28T06:56:00.723Z,9
2022-09-28T06:57:00.717Z,10
2022-09-28T06:58:00.703Z,9
2022-09-28T06:59:00.712Z,8
2022-09-28T07:00:00.755Z,7
2022-09-28T07:01:00.776Z,7
2022-09-28T07:02:00.819Z,7
2022-09-28T07:03:00.736Z,7
2022-09-28T07:05:00.716Z,8
2022-09-28T07:06:00.706Z,7
2022-09-28T07:07:00.714Z,7
2022-09-28T07:08:00.688Z,9
2022-09-28T07:09:19.689Z,7
2022-09-28T07:10:00.692Z,10
2022-09-28T07:11:00.720Z,8
2022-09-28T07:12:00.717Z,7
2022-09-28T07:13:00.697Z,7
2022-09-28T07:14:00.731Z,9
2022-09-28T07:15:00.702Z,8
2022-09-28T07:16:00.712Z,9
2022-09-28T07:17:13.621Z,8
2022-09-28T07:18:03.266Z,8
2022-09-28T07:19:00.692Z,11
2022-09-28T07:20:09.324Z,9
2022-09-28T07:21:00.729Z,7
2022-09-28T07:22:05.175Z,8
2022-09-28T07:23:13.299Z,6
2022-09-28T07:24:00.681Z,8
2022-09-28T07:25:00.696Z,7
2022-09-28T07:26:00.715Z,7
2022-09-28T07:27:00.698Z,6
2022-09-28T07:28:00.697Z,6
2022-09-28T07:29:00.723Z,7
2022-09-28T07:30:00.688Z,7
2022-09-28T07:31:00.814Z,8
2022-09-28T07:32:07.902Z,7
2022-09-28T07:33:00.685Z,5
2022-09-28T07:34:00.708Z,6
2022-09-28T07:35:00.702Z,6
2022-09-28T07:36:00.719Z,6
2022-09-28T07:37:00.706Z,7
2022-09-28T07:38:00.692Z,6
2022-09-28T07:39:00.691Z,9
2022-09-28T07:40:00.727Z,7
2022-09-28T07:41:00.768Z,7
2022-09-28T07:42:03.034Z,5
2022-09-28T07:43:00.700Z,7
2022-09-28T07:44:00.689Z,6
2022-09-28T07:45:00.708Z,6
2022-09-28T07:46:00.735Z,7
2022-09-28T07:47:00.692Z,6
2022-09-28T07:48:00.754Z,7
2022-09-28T07:49:00.700Z,7
2022-09-28T07:50:00.693Z,7
2022-09-28T07:51:00.726Z,6
2022-09-28T07:52:00.707Z,6
2022-09-28T07:53:00.695Z,5
2022-09-28T07:54:00.693Z,6
2022-09-28T07:55:05.955Z,8
2022-09-28T07:56:00.702Z,6
2022-09-28T07:57:00.701Z,6
2022-09-28T07:58:00.693Z,6
2022-09-28T07:59:00.696Z,7
2022-09-28T08:01:00.772Z,6
2022-09-28T08:02:00.745Z,6
2022-09-28T08:03:00.692Z,6
2022-09-28T08:04:00.688Z,8
2022-09-28T08:05:00.702Z,6
2022-09-28T08:06:00.709Z,6
2022-09-28T08:07:00.709Z,6
2022-09-28T08:08:00.704Z,7
2022-09-28T08:09:00.717Z,6
2022-09-28T08:10:00.694Z,5
2022-09-28T08:11:00.714Z,8
2022-09-28T08:12:00.690Z,6
2022-09-28T08:13:02.717Z,6
2022-09-28T08:14:00.727Z,6
2022-09-28T08:15:00.705Z,7
2022-09-28T08:16:00.700Z,6
2022-09-28T08:17:00.700Z,8
2022-09-28T08:18:02.882Z,6
2022-09-28T08:19:00.693Z,6
2022-09-28T08:20:00.701Z,6
2022-09-28T08:21:00.698Z,6
2022-09-28T08:22:00.710Z,6
2022-09-28T08:23:00.720Z,5
2022-09-28T08:24:00.690Z,5
2022-09-28T08:25:00.720Z,6
2022-09-28T08:26:00.689Z,7
2022-09-28T08:27:00.700Z,6
2022-09-28T08:28:00.709Z,5
2022-09-28T08:29:00.707Z,6
2022-09-28T08:30:00.696Z,4
2022-09-28T08:33:00.705Z,6
2022-09-28T08:34:00.702Z,5
2022-09-28T08:35:00.697Z,5
2022-09-28T08:36:00.706Z,6
2022-09-28T08:37:00.700Z,6
2022-09-28T08:38:00.701Z,5
2022-09-28T08:39:00.688Z,4
2022-09-28T08:40:00.709Z,4
2022-09-28T08:41:00.811Z,5
2022-09-28T08:42:00.698Z,5
2022-09-28T08:43:00.697Z,6
2022-09-28T08:44:00.702Z,4
2022-09-28T08:45:00.693Z,5
2022-09-28T08:46:00.776Z,7
2022-09-28T08:47:00.697Z,4
2022-09-28T08:48:00.702Z,5
2022-09-28T08:49:20.989Z,5
2022-09-28T08:50:00.709Z,5
2022-09-28T08:51:00.719Z,6
2022-09-28T08:52:00.715Z,3
2022-09-28T08:53:00.797Z,4
2022-09-28T08:54:00.700Z,6
2022-09-28T08:55:00.690Z,5
2022-09-28T08:56:00.723Z,5
2022-09-28T08:57:00.700Z,5
2022-09-28T08:58:00.719Z,4
2022-09-28T08:59:00.715Z,5
2022-09-28T09:00:00.706Z,5
2022-09-28T09:01:00.839Z,6
2022-09-28T09:02:00.745Z,4
2022-09-28T09:03:00.768Z,4
2022-09-28T09:04:00.703Z,4
2022-09-28T09:05:00.690Z,5
2022-09-28T09:06:00.713Z,4
2022-09-28T09:07:00.712Z,4
2022-09-28T09:08:00.694Z,3
2022-09-28T09:09:00.692Z,4
2022-09-28T09:10:00.708Z,4
2022-09-28T09:11:00.702Z,4
2022-09-28T09:12:00.692Z,4
2022-09-28T09:13:00.707Z,4
2022-09-28T09:14:00.704Z,5
2022-09-28T09:15:00.696Z,4
2022-09-28T09:16:00.708Z,5
2022-09-28T09:17:01.090Z,5
2022-09-28T09:18:00.705Z,4
2022-09-28T09:19:00.690Z,3
2022-09-28T09:20:00.720Z,4
2022-09-28T09:21:00.698Z,4
2022-09-28T09:22:00.712Z,4
2022-09-28T09:23:00.696Z,4
2022-09-28T09:24:00.723Z,7
2022-09-28T09:25:00.765Z,5
2022-09-28T09:26:00.725Z,7
2022-09-28T09:27:00.693Z,4
2022-09-28T09:28:00.706Z,6
2022-09-28T09:29:00.709Z,3
2022-09-28T09:30:00.694Z,4
2022-09-28T09:31:00.848Z,4
2022-09-28T09:32:00.700Z,4
2022-09-28T09:33:00.699Z,4
2022-09-28T09:34:00.714Z,5
2022-09-28T09:35:00.717Z,3
2022-09-28T09:36:00.701Z,3
2022-09-28T09:37:00.695Z,4
2022-09-28T09:38:00.720Z,4
2022-09-28T09:39:00.705Z,4
2022-09-28T09:40:00.711Z,4
2022-09-28T09:41:00.868Z,5
2022-09-28T09:42:00.702Z,4
2022-09-28T09:43:00.693Z,4
2022-09-28T09:44:00.702Z,5
2022-09-28T09:45:00.727Z,5
2022-09-28T09:46:00.800Z,6
2022-09-28T09:47:00.742Z,11
2022-09-28T09:48:00.712Z,7
2022-09-28T09:49:00.705Z,4
2022-09-28T09:50:04.092Z,4
2022-09-28T09:51:00.740Z,8
2022-09-28T09:52:00.759Z,7
2022-09-28T09:53:00.735Z,6
2022-09-28T09:54:00.704Z,6
2022-09-28T09:55:00.731Z,6
2022-09-28T09:56:00.738Z,6
2022-09-28T09:57:00.709Z,5
2022-09-28T09:58:00.706Z,3
2022-09-28T09:59:00.715Z,3
2022-09-28T10:00:00.709Z,3
2022-09-28T10:01:00.761Z,7
2022-09-28T10:02:00.749Z,4
2022-09-28T10:03:00.785Z,6
2022-09-28T10:04:00.694Z,7
2022-09-28T10:05:00.704Z,8
2022-09-28T10:06:00.719Z,5
2022-09-28T10:07:00.705Z,4
2022-09-28T10:08:00.781Z,7
2022-09-28T10:09:00.728Z,4
2022-09-28T10:10:00.699Z,5
2022-09-28T10:11:00.727Z,4
2022-09-28T10:12:00.704Z,5
2022-09-28T10:13:00.714Z,2
2022-09-28T10:14:00.704Z,2
2022-09-28T10:15:00.721Z,3
2022-09-28T10:16:00.717Z,3
2022-09-28T10:17:00.784Z,3
2022-09-28T10:18:00.779Z,3
2022-09-28T10:19:00.701Z,2
2022-09-28T10:20:00.708Z,3
2022-09-28T10:21:00.711Z,2
2022-09-28T10:22:00.704Z,2
2022-09-28T10:23:00.714Z,3
2022-09-28T10:24:00.712Z,4
2022-09-28T10:25:00.712Z,2
2022-09-28T10:26:00.735Z,2
2022-09-28T10:27:00.698Z,2
2022-09-28T10:28:00.705Z,5
2022-09-28T10:29:00.719Z,3
2022-09-28T10:30:00.707Z,3
2022-09-28T10:31:00.868Z,4
2022-09-28T10:32:00.702Z,3
2022-09-28T10:33:00.702Z,4
2022-09-28T10:34:00.698Z,1
2022-09-28T10:35:00.693Z,3
2022-09-28T10:36:00.717Z,1
2022-09-28T10:37:00.741Z,1
2022-09-28T10:38:00.699Z,3
2022-09-28T10:39:00.720Z,2
2022-09-28T10:41:00.827Z,2
2022-09-28T10:42:00.709Z,3
2022-09-28T10:43:00.710Z,2
2022-09-28T10:44:00.744Z,2
2022-09-28T10:45:00.769Z,3
2022-09-28T10:46:00.810Z,2
2022-09-28T10:47:00.700Z,2
2022-09-28T10:48:00.739Z,4
2022-09-28T10:49:00.723Z,3
2022-09-28T10:50:00.710Z,3
2022-09-28T10:51:00.745Z,2
2022-09-28T10:52:00.717Z,2
2022-09-28T10:53:00.740Z,3
2022-09-28T10:54:00.701Z,2
2022-09-28T10:55:00.704Z,3
2022-09-28T10:56:00.754Z,2
2022-09-28T10:57:00.738Z,1
2022-09-28T10:58:00.709Z,2
2022-09-28T10:59:00.718Z,1
2022-09-28T11:00:00.725Z,2
2022-09-28T11:01:00.747Z,4
2022-09-28T11:02:00.785Z,2
2022-09-28T11:03:00.804Z,2
2022-09-28T11:04:00.725Z,3
2022-09-28T11:06:00.739Z,4
2022-09-28T11:08:00.706Z,2
2022-09-28T11:09:00.712Z,3
2022-09-28T11:10:00.712Z,3
2022-09-28T11:11:00.726Z,3
2022-09-28T11:12:00.719Z,3
2022-09-28T11:13:00.730Z,5
2022-09-28T11:14:00.740Z,4
2022-09-28T11:15:00.713Z,3
2022-09-28T11:16:00.718Z,2
2022-09-28T11:17:00.766Z,3
2022-09-28T11:18:00.707Z,2
2022-09-28T11:19:00.704Z,2
2022-09-28T11:20:00.704Z,3
2022-09-28T11:21:00.731Z,3
2022-09-28T11:22:00.719Z,2
2022-09-28T11:23:00.702Z,3
2022-09-28T11:25:00.709Z,2
2022-09-28T11:26:00.730Z,3
2022-09-28T11:27:00.720Z,3
2022-09-28T11:28:00.746Z,2
2022-09-28T11:29:00.726Z,2
2022-09-28T11:30:00.717Z,2
2022-09-28T11:31:00.773Z,1
2022-09-28T11:32:00.708Z,3
2022-09-28T11:33:00.724Z,4
2022-09-28T11:34:00.718Z,3
2022-09-28T11:35:00.782Z,2
2022-09-28T11:36:00.721Z,3
2022-09-28T11:37:01.893Z,3
2022-09-28T11:38:00.721Z,2
2022-09-28T11:39:00.712Z,2
2022-09-28T11:40:00.712Z,2
2022-09-28T11:41:00.843Z,2
2022-09-28T11:42:00.722Z,1
2022-09-28T11:43:00.772Z,2
2022-09-28T11:44:00.725Z,2
2022-09-28T11:45:00.710Z,2
2022-09-28T11:46:00.795Z,4
2022-09-28T11:47:00.716Z,2
2022-09-28T11:48:00.734Z,4
2022-09-28T11:49:00.705Z,2
2022-09-28T11:50:00.720Z,4
2022-09-28T11:51:00.728Z,2
2022-09-28T11:52:00.713Z,2
2022-09-28T11:53:00.713Z,2
2022-09-28T11:54:00.701Z,2
2022-09-28T11:55:00.709Z,1
2022-09-28T11:56:03.202Z,3
2022-09-28T11:57:00.721Z,2
2022-09-28T11:58:00.724Z,1
2022-09-28T11:59:00.731Z,2
2022-09-28T12:00:00.719Z,2
2022-09-28T12:01:00.726Z,3
2022-09-28T12:02:00.783Z,2
2022-09-28T12:03:00.911Z,2
2022-09-28T12:04:00.715Z,3
2022-09-28T12:05:00.706Z,2
2022-09-28T12:06:00.744Z,2
2022-09-28T12:07:00.727Z,1
2022-09-28T12:08:00.717Z,1
2022-09-28T12:10:00.711Z,3
2022-09-28T12:11:00.736Z,5
2022-09-28T12:12:00.711Z,2
2022-09-28T12:13:00.712Z,2
2022-09-28T12:14:00.710Z,4
2022-09-28T12:15:00.716Z,3
2022-09-28T12:16:32.314Z,3
2022-09-28T12:17:08.621Z,3
2022-09-28T12:18:00.757Z,3
2022-09-28T12:20:00.733Z,3
2022-09-28T12:21:05.008Z,2
2022-09-28T12:22:00.727Z,3
2022-09-28T12:23:00.705Z,1
2022-09-28T12:24:00.718Z,2
2022-09-28T12:25:00.739Z,3
2022-09-28T12:26:00.703Z,3
2022-09-28T12:27:00.715Z,2
2022-09-28T12:28:00.710Z,3
2022-09-28T12:29:00.713Z,3
2022-09-28T12:30:00.750Z,2
2022-09-28T12:31:00.822Z,2
2022-09-28T12:32:00.726Z,3
2022-09-28T12:33:00.717Z,2
2022-09-28T12:34:00.725Z,4
2022-09-28T12:35:00.714Z,4
2022-09-28T12:36:00.715Z,3
2022-09-28T12:37:00.725Z,2
2022-09-28T12:38:00.720Z,2
2022-09-28T12:40:01.061Z,3
2022-09-28T12:41:00.791Z,3
2022-09-28T12:42:00.732Z,4
2022-09-28T12:43:00.727Z,2
2022-09-28T12:44:00.738Z,2
2022-09-28T12:45:00.725Z,3
2022-09-28T12:46:11.635Z,2
2022-09-28T12:47:00.893Z,2
2022-09-28T12:48:00.738Z,3
2022-09-28T12:50:37.486Z,2
2022-09-28T12:51:01.064Z,4
2022-09-28T12:52:00.728Z,2
2022-09-28T12:53:03.038Z,2
2022-09-28T12:54:00.722Z,3
2022-09-28T12:55:00.838Z,2
2022-09-28T12:56:00.725Z,4
2022-09-28T12:57:00.729Z,2
2022-09-28T12:58:00.755Z,2
2022-09-28T12:59:00.731Z,2
2022-09-28T13:00:00.897Z,2
2022-09-28T13:01:00.766Z,2
2022-09-28T13:02:00.753Z,2
2022-09-28T13:03:00.843Z,3
2022-09-28T13:04:00.716Z,2
2022-09-28T13:05:00.715Z,2
2022-09-28T13:06:00.720Z,2
2022-09-28T13:07:00.720Z,2
2022-09-28T13:08:00.737Z,3
2022-09-28T13:09:00.717Z,1
2022-09-28T13:10:00.786Z,2
2022-09-28T13:11:04.278Z,1
2022-09-28T13:12:00.726Z,2
2022-09-28T13:13:00.722Z,2
2022-09-28T13:14:00.731Z,2
2022-09-28T13:15:00.740Z,3
2022-09-28T13:16:00.800Z,5
2022-09-28T13:17:00.987Z,4
2022-09-28T13:18:00.712Z,2
2022-09-28T13:19:00.720Z,3
2022-09-28T13:20:00.825Z,2
2022-09-28T13:21:00.730Z,2
2022-09-28T13:22:00.724Z,2
2022-09-28T13:23:00.734Z,2
2022-09-28T13:24:14.758Z,2
2022-09-28T13:25:00.713Z,2
2022-09-28T13:26:00.721Z,3
2022-09-28T13:27:00.730Z,1
2022-09-28T13:28:00.719Z,2
2022-09-28T13:29:00.741Z,1
2022-09-28T13:30:01.102Z,1
2022-09-28T13:31:00.720Z,3
2022-09-28T13:32:00.752Z,5
2022-09-28T13:33:00.729Z,3
2022-09-28T13:34:00.728Z,2
2022-09-28T13:35:00.727Z,1
2022-09-28T13:36:00.724Z,2
2022-09-28T13:37:00.737Z,2
2022-09-28T13:38:00.720Z,2
2022-09-28T13:39:00.731Z,2
2022-09-28T13:40:00.740Z,1
2022-09-28T13:41:00.810Z,2
2022-09-28T13:42:00.745Z,5
2022-09-28T13:43:00.731Z,7
2022-09-28T13:44:00.727Z,5
2022-09-28T13:45:00.725Z,4
2022-09-28T13:46:00.792Z,3
2022-09-28T13:47:00.735Z,5
2022-09-28T13:49:00.735Z,3
2022-09-28T13:50:00.717Z,4
2022-09-28T13:51:00.721Z,4
2022-09-28T13:52:00.733Z,2
2022-09-28T13:53:00.727Z,4
2022-09-28T13:54:00.716Z,3
2022-09-28T13:55:00.727Z,2
2022-09-28T13:56:00.724Z,3
2022-09-28T13:57:00.734Z,5
2022-09-28T13:58:00.735Z,5
2022-09-28T13:59:00.739Z,5
2022-09-28T14:00:00.729Z,4
2022-09-28T14:01:00.729Z,3
2022-09-28T14:02:06.298Z,3
2022-09-28T14:03:02.042Z,3
2022-09-28T14:04:00.736Z,3
2022-09-28T14:05:00.747Z,3
2022-09-28T14:06:00.731Z,5
2022-09-28T14:07:00.736Z,2
2022-09-28T14:08:00.740Z,5
2022-09-28T14:09:00.724Z,3
2022-09-28T14:10:00.739Z,2
2022-09-28T14:11:00.731Z,2
2022-09-28T14:12:00.723Z,3
2022-09-28T14:13:03.153Z,2
2022-09-28T14:14:00.730Z,3
2022-09-28T14:15:00.736Z,2
2022-09-28T14:16:00.800Z,2
2022-09-28T14:17:00.730Z,3
2022-09-28T14:18:00.749Z,2
2022-09-28T14:19:00.728Z,2
2022-09-28T14:20:00.728Z,3
2022-09-28T14:21:00.733Z,2
2022-09-28T14:22:00.739Z,3
2022-09-28T14:23:00.721Z,2
2022-09-28T14:24:00.734Z,2
2022-09-28T14:25:00.727Z,4
2022-09-28T14:26:00.744Z,2
2022-09-28T14:27:00.738Z,2
2022-09-28T14:28:00.739Z,3
2022-09-28T14:29:00.745Z,3
2022-09-28T14:30:00.734Z,3
2022-09-28T14:31:00.797Z,1
2022-09-28T14:32:00.807Z,2
2022-09-28T14:33:00.794Z,3
2022-09-28T14:34:00.767Z,3
2022-09-28T14:35:00.740Z,3
2022-09-28T14:36:00.739Z,2
2022-09-28T14:37:00.732Z,2
2022-09-28T14:38:00.742Z,3
2022-09-28T14:39:00.730Z,5
2022-09-28T14:40:00.734Z,3
2022-09-28T14:41:00.815Z,2
2022-09-28T14:42:00.744Z,3
2022-09-28T14:43:00.735Z,4
2022-09-28T14:44:00.752Z,2
2022-09-28T14:45:05.295Z,3
2022-09-28T14:46:00.771Z,1
2022-09-28T14:47:00.744Z,2
2022-09-28T14:48:00.794Z,2
2022-09-28T14:49:00.728Z,3
2022-09-28T14:50:00.733Z,2
2022-09-28T14:51:00.753Z,1
2022-09-28T14:52:00.737Z,2
2022-09-28T14:53:00.729Z,2
2022-09-28T14:54:00.762Z,2
2022-09-28T14:55:00.750Z,2
2022-09-28T14:56:00.745Z,2
2022-09-28T14:57:00.739Z,3
2022-09-28T14:58:00.737Z,3
2022-09-28T14:59:00.752Z,1
2022-09-28T15:00:00.744Z,1
2022-09-28T15:01:00.740Z,2
2022-09-28T15:02:00.764Z,2
2022-09-28T15:03:12.121Z,2
2022-09-28T15:04:00.816Z,2